sensor_id;sensor_type;location;lat;lon;timestamp;P1;durP1;ratioP1;P2;durP2;ratioP2
46757;SDS011;32509;47.750;-3.396;2023-01-15T00:00:47;5.70;;;1.70;;
46757;SDS011;32509;47.750;-3.396;2023-01-15T00:03:13;6.47;;;1.65;;
46757;SDS011;32509;47.750;-3.396;2023-01-15T00:05:39;7.47;;;2.00;;
46757;SDS011;32509;47.750;-3.396;2023-01-15T00:08:05;5.47;;;1.63;;
46757;SDS011;32509;47.750;-3.396;2023-01-15T00:10:31;6.25;;;1.35;;
46757;SDS011;32509;47.750;-3.396;2023-01-15T00:12:57;5.28;;;1.27;;
46757;SDS011;32509;47.750;-3.396;2023-01-15T00:15:23;8.60;;;1.70;;
46757;SDS011;32509;47.750;-3.396;2023-01-15T00:17:49;4.38;;;1.48;;
46757;SDS011;32509;47.750;-3.396;2023-01-15T00:20:15;4.28;;;1.80;;
46757;SDS011;32509;47.750;-3.396;2023-01-15T00:22:41;5.32;;;1.67;;
46757;SDS011;32509;47.750;-3.396;2023-01-15T00:25:08;5.35;;;1.52;;
46757;SDS011;32509;47.750;-3.396;2023-01-15T00:27:53;3.53;;;1.10;;
46757;SDS011;32509;47.750;-3.396;2023-01-15T00:30:19;2.42;;;1.13;;
46757;SDS011;32509;47.750;-3.396;2023-01-15T00:32:45;3.15;;;1.15;;
46757;SDS011;32509;47.750;-3.396;2023-01-15T00:35:21;3.22;;;1.10;;
46757;SDS011;32509;47.750;-3.396;2023-01-15T00:37:48;2.63;;;1.20;;
46757;SDS011;32509;47.750;-3.396;2023-01-15T00:40:15;4.18;;;1.23;;
46757;SDS011;32509;47.750;-3.396;2023-01-15T00:42:41;3.33;;;1.30;;
46757;SDS011;32509;47.750;-3.396;2023-01-15T00:45:08;3.00;;;1.00;;
46757;SDS011;32509;47.750;-3.396;2023-01-15T00:47:38;2.80;;;1.40;;
46757;SDS011;32509;47.750;-3.396;2023-01-15T00:50:05;3.65;;;1.02;;
46757;SDS011;32509;47.750;-3.396;2023-01-15T00:52:31;7.65;;;1.70;;
46757;SDS011;32509;47.750;-3.396;2023-01-15T00:54:57;3.75;;;1.35;;
46757;SDS011;32509;47.750;-3.396;2023-01-15T00:57:23;5.22;;;1.60;;
46757;SDS011;32509;47.750;-3.396;2023-01-15T00:59:50;3.97;;;1.40;;
46757;SDS011;32509;47.750;-3.396;2023-01-15T01:02:16;5.50;;;1.10;;
46757;SDS011;32509;47.750;-3.396;2023-01-15T01:04:42;7.07;;;1.55;;
46757;SDS011;32509;47.750;-3.396;2023-01-15T01:07:08;6.07;;;2.13;;
46757;SDS011;32509;47.750;-3.396;2023-01-15T01:09:35;7.45;;;1.67;;
46757;SDS011;32509;47.750;-3.396;2023-01-15T01:12:01;9.50;;;2.50;;
46757;SDS011;32509;47.750;-3.396;2023-01-15T01:14:27;4.32;;;2.00;;
46757;SDS011;32509;47.750;-3.396;2023-01-15T01:16:53;3.67;;;1.52;;
46757;SDS011;32509;47.750;-3.396;2023-01-15T01:19:20;5.00;;;1.45;;
46757;SDS011;32509;47.750;-3.396;2023-01-15T01:21:46;5.28;;;1.70;;
46757;SDS011;32509;47.750;-3.396;2023-01-15T01:24:20;5.75;;;1.63;;
46757;SDS011;32509;47.750;-3.396;2023-01-15T01:26:47;5.80;;;1.67;;
46757;SDS011;32509;47.750;-3.396;2023-01-15T01:29:14;5.55;;;1.98;;
46757;SDS011;32509;47.750;-3.396;2023-01-15T01:31:40;8.07;;;2.00;;
46757;SDS011;32509;47.750;-3.396;2023-01-15T01:34:07;7.40;;;2.05;;
46757;SDS011;32509;47.750;-3.396;2023-01-15T01:36:34;10.13;;;1.90;;
46757;SDS011;32509;47.750;-3.396;2023-01-15T01:39:00;6.95;;;1.80;;
46757;SDS011;32509;47.750;-3.396;2023-01-15T01:41:27;6.47;;;1.95;;
46757;SDS011;32509;47.750;-3.396;2023-01-15T01:46:19;6.95;;;1.73;;
46757;SDS011;32509;47.750;-3.396;2023-01-15T01:48:45;9.00;;;1.70;;
46757;SDS011;32509;47.750;-3.396;2023-01-15T01:51:13;7.80;;;2.03;;
46757;SDS011;32509;47.750;-3.396;2023-01-15T01:53:39;8.15;;;2.33;;
46757;SDS011;32509;47.750;-3.396;2023-01-15T01:56:06;8.63;;;2.40;;
46757;SDS011;32509;47.750;-3.396;2023-01-15T01:58:33;9.05;;;2.15;;
46757;SDS011;32509;47.750;-3.396;2023-01-15T02:01:00;10.55;;;3.00;;
46757;SDS011;32509;47.750;-3.396;2023-01-15T02:03:29;9.00;;;3.10;;
46757;SDS011;32509;47.750;-3.396;2023-01-15T02:05:57;7.18;;;2.22;;
46757;SDS011;32509;47.750;-3.396;2023-01-15T02:08:24;8.73;;;2.08;;
46757;SDS011;32509;47.750;-3.396;2023-01-15T02:10:54;6.55;;;1.90;;
46757;SDS011;32509;47.750;-3.396;2023-01-15T02:13:37;8.52;;;2.65;;
46757;SDS011;32509;47.750;-3.396;2023-01-15T02:18:39;8.90;;;1.73;;
46757;SDS011;32509;47.750;-3.396;2023-01-15T02:21:45;7.82;;;2.22;;
46757;SDS011;32509;47.750;-3.396;2023-01-15T02:24:10;3.45;;;1.50;;
46757;SDS011;32509;47.750;-3.396;2023-01-15T02:26:59;6.35;;;1.45;;
46757;SDS011;32509;47.750;-3.396;2023-01-15T02:29:32;10.55;;;2.45;;
46757;SDS011;32509;47.750;-3.396;2023-01-15T02:34:26;9.38;;;2.40;;
46757;SDS011;32509;47.750;-3.396;2023-01-15T02:37:05;6.18;;;1.55;;
46757;SDS011;32509;47.750;-3.396;2023-01-15T02:39:32;8.70;;;2.17;;
46757;SDS011;32509;47.750;-3.396;2023-01-15T02:42:00;4.70;;;1.65;;
46757;SDS011;32509;47.750;-3.396;2023-01-15T02:44:28;5.45;;;2.08;;
46757;SDS011;32509;47.750;-3.396;2023-01-15T02:46:55;11.32;;;2.75;;
46757;SDS011;32509;47.750;-3.396;2023-01-15T02:49:22;9.43;;;2.45;;
46757;SDS011;32509;47.750;-3.396;2023-01-15T02:54:14;6.78;;;2.05;;
46757;SDS011;32509;47.750;-3.396;2023-01-15T02:56:42;7.47;;;1.75;;
46757;SDS011;32509;47.750;-3.396;2023-01-15T02:59:11;12.35;;;1.85;;
46757;SDS011;32509;47.750;-3.396;2023-01-15T03:01:45;7.57;;;1.55;;
46757;SDS011;32509;47.750;-3.396;2023-01-15T03:09:13;6.77;;;2.40;;
46757;SDS011;32509;47.750;-3.396;2023-01-15T03:11:47;6.82;;;1.98;;
46757;SDS011;32509;47.750;-3.396;2023-01-15T03:14:22;11.00;;;2.38;;
46757;SDS011;32509;47.750;-3.396;2023-01-15T03:16:58;8.95;;;2.05;;
46757;SDS011;32509;47.750;-3.396;2023-01-15T03:19:26;4.82;;;2.25;;
46757;SDS011;32509;47.750;-3.396;2023-01-15T03:24:31;12.00;;;3.33;;
46757;SDS011;32509;47.750;-3.396;2023-01-15T03:27:00;11.57;;;3.70;;
46757;SDS011;32509;47.750;-3.396;2023-01-15T03:29:28;12.07;;;2.55;;
46757;SDS011;32509;47.750;-3.396;2023-01-15T03:31:55;8.57;;;2.08;;
46757;SDS011;32509;47.750;-3.396;2023-01-15T03:34:21;14.45;;;2.63;;
46757;SDS011;32509;47.750;-3.396;2023-01-15T03:36:49;5.57;;;2.00;;
46757;SDS011;32509;47.750;-3.396;2023-01-15T03:39:15;8.15;;;2.45;;
46757;SDS011;32509;47.750;-3.396;2023-01-15T03:47:33;5.68;;;1.52;;
46757;SDS011;32509;47.750;-3.396;2023-01-15T03:50:13;7.32;;;2.38;;
46757;SDS011;32509;47.750;-3.396;2023-01-15T03:55:19;10.33;;;2.37;;
46757;SDS011;32509;47.750;-3.396;2023-01-15T04:00:20;6.50;;;2.72;;
46757;SDS011;32509;47.750;-3.396;2023-01-15T04:02:47;10.20;;;2.20;;
46757;SDS011;32509;47.750;-3.396;2023-01-15T04:05:13;10.80;;;2.50;;
46757;SDS011;32509;47.750;-3.396;2023-01-15T04:07:40;10.68;;;3.78;;
46757;SDS011;32509;47.750;-3.396;2023-01-15T04:10:07;7.53;;;1.80;;
46757;SDS011;32509;47.750;-3.396;2023-01-15T04:12:33;6.43;;;2.28;;
46757;SDS011;32509;47.750;-3.396;2023-01-15T04:14:59;6.47;;;1.77;;
46757;SDS011;32509;47.750;-3.396;2023-01-15T04:17:25;4.38;;;1.52;;
46757;SDS011;32509;47.750;-3.396;2023-01-15T04:19:51;10.88;;;1.67;;
46757;SDS011;32509;47.750;-3.396;2023-01-15T04:22:17;9.63;;;1.70;;
46757;SDS011;32509;47.750;-3.396;2023-01-15T04:24:43;6.15;;;1.80;;
46757;SDS011;32509;47.750;-3.396;2023-01-15T04:27:09;10.10;;;1.55;;
46757;SDS011;32509;47.750;-3.396;2023-01-15T04:29:36;8.02;;;1.98;;
46757;SDS011;32509;47.750;-3.396;2023-01-15T04:32:02;8.60;;;1.52;;
46757;SDS011;32509;47.750;-3.396;2023-01-15T04:34:28;14.50;;;3.08;;
46757;SDS011;32509;47.750;-3.396;2023-01-15T04:36:55;12.00;;;2.50;;
46757;SDS011;32509;47.750;-3.396;2023-01-15T04:39:21;6.45;;;1.65;;
46757;SDS011;32509;47.750;-3.396;2023-01-15T04:41:47;11.07;;;3.10;;
46757;SDS011;32509;47.750;-3.396;2023-01-15T04:44:32;14.50;;;2.60;;
46757;SDS011;32509;47.750;-3.396;2023-01-15T04:46:59;11.00;;;4.22;;
46757;SDS011;32509;47.750;-3.396;2023-01-15T04:49:25;9.73;;;2.72;;
46757;SDS011;32509;47.750;-3.396;2023-01-15T04:51:51;13.27;;;2.60;;
46757;SDS011;32509;47.750;-3.396;2023-01-15T04:54:17;12.32;;;3.35;;
46757;SDS011;32509;47.750;-3.396;2023-01-15T04:56:45;10.80;;;2.90;;
46757;SDS011;32509;47.750;-3.396;2023-01-15T04:59:12;14.98;;;2.67;;
46757;SDS011;32509;47.750;-3.396;2023-01-15T05:01:38;14.80;;;3.78;;
46757;SDS011;32509;47.750;-3.396;2023-01-15T05:04:04;15.52;;;2.90;;
46757;SDS011;32509;47.750;-3.396;2023-01-15T05:06:31;10.32;;;2.63;;
46757;SDS011;32509;47.750;-3.396;2023-01-15T05:08:57;12.00;;;3.63;;
46757;SDS011;32509;47.750;-3.396;2023-01-15T05:11:23;9.82;;;2.50;;
46757;SDS011;32509;47.750;-3.396;2023-01-15T05:13:49;13.07;;;2.13;;
46757;SDS011;32509;47.750;-3.396;2023-01-15T05:16:17;13.38;;;4.20;;
46757;SDS011;32509;47.750;-3.396;2023-01-15T05:18:44;11.15;;;3.03;;
46757;SDS011;32509;47.750;-3.396;2023-01-15T05:21:17;13.65;;;3.00;;
46757;SDS011;32509;47.750;-3.396;2023-01-15T05:23:45;16.00;;;2.80;;
46757;SDS011;32509;47.750;-3.396;2023-01-15T05:26:11;10.60;;;2.95;;
46757;SDS011;32509;47.750;-3.396;2023-01-15T05:28:37;12.93;;;3.17;;
46757;SDS011;32509;47.750;-3.396;2023-01-15T05:31:07;16.45;;;3.67;;
46757;SDS011;32509;47.750;-3.396;2023-01-15T05:33:33;13.23;;;3.47;;
46757;SDS011;32509;47.750;-3.396;2023-01-15T05:36:00;10.07;;;3.05;;
46757;SDS011;32509;47.750;-3.396;2023-01-15T05:38:27;7.80;;;2.08;;
46757;SDS011;32509;47.750;-3.396;2023-01-15T05:40:53;8.15;;;2.80;;
46757;SDS011;32509;47.750;-3.396;2023-01-15T05:43:20;12.85;;;3.08;;
46757;SDS011;32509;47.750;-3.396;2023-01-15T05:45:46;10.77;;;2.67;;
46757;SDS011;32509;47.750;-3.396;2023-01-15T05:48:12;14.80;;;3.55;;
46757;SDS011;32509;47.750;-3.396;2023-01-15T05:50:38;13.10;;;3.10;;
46757;SDS011;32509;47.750;-3.396;2023-01-15T05:53:05;9.10;;;2.83;;
46757;SDS011;32509;47.750;-3.396;2023-01-15T05:55:31;9.55;;;2.60;;
46757;SDS011;32509;47.750;-3.396;2023-01-15T05:57:57;15.68;;;3.20;;
46757;SDS011;32509;47.750;-3.396;2023-01-15T06:00:24;13.85;;;3.50;;
46757;SDS011;32509;47.750;-3.396;2023-01-15T06:02:50;12.75;;;3.42;;
46757;SDS011;32509;47.750;-3.396;2023-01-15T06:05:17;14.25;;;2.92;;
46757;SDS011;32509;47.750;-3.396;2023-01-15T06:07:47;11.55;;;2.88;;
46757;SDS011;32509;47.750;-3.396;2023-01-15T06:10:14;11.50;;;2.95;;
46757;SDS011;32509;47.750;-3.396;2023-01-15T06:12:40;10.75;;;2.67;;
46757;SDS011;32509;47.750;-3.396;2023-01-15T06:15:07;10.70;;;2.90;;
46757;SDS011;32509;47.750;-3.396;2023-01-15T06:17:33;11.05;;;3.28;;
46757;SDS011;32509;47.750;-3.396;2023-01-15T06:20:00;13.38;;;3.25;;
46757;SDS011;32509;47.750;-3.396;2023-01-15T06:22:26;11.93;;;2.97;;
46757;SDS011;32509;47.750;-3.396;2023-01-15T06:24:53;14.55;;;3.75;;
46757;SDS011;32509;47.750;-3.396;2023-01-15T06:27:19;10.32;;;2.42;;
46757;SDS011;32509;47.750;-3.396;2023-01-15T06:29:45;9.45;;;2.75;;
46757;SDS011;32509;47.750;-3.396;2023-01-15T06:32:15;11.20;;;2.83;;
46757;SDS011;32509;47.750;-3.396;2023-01-15T06:34:41;12.90;;;3.03;;
46757;SDS011;32509;47.750;-3.396;2023-01-15T06:37:08;13.38;;;2.85;;
46757;SDS011;32509;47.750;-3.396;2023-01-15T06:39:34;13.20;;;3.83;;
46757;SDS011;32509;47.750;-3.396;2023-01-15T06:42:00;8.85;;;2.75;;
46757;SDS011;32509;47.750;-3.396;2023-01-15T06:44:45;6.07;;;2.13;;
46757;SDS011;32509;47.750;-3.396;2023-01-15T06:47:30;7.80;;;2.97;;
46757;SDS011;32509;47.750;-3.396;2023-01-15T06:49:56;6.43;;;1.67;;
46757;SDS011;32509;47.750;-3.396;2023-01-15T06:52:23;8.93;;;1.65;;
46757;SDS011;32509;47.750;-3.396;2023-01-15T06:54:50;11.05;;;1.85;;
46757;SDS011;32509;47.750;-3.396;2023-01-15T06:57:16;8.63;;;2.03;;
46757;SDS011;32509;47.750;-3.396;2023-01-15T06:59:43;8.48;;;2.67;;
46757;SDS011;32509;47.750;-3.396;2023-01-15T07:02:10;8.15;;;1.92;;
46757;SDS011;32509;47.750;-3.396;2023-01-15T07:04:36;6.38;;;2.10;;
46757;SDS011;32509;47.750;-3.396;2023-01-15T07:07:02;9.00;;;2.00;;
46757;SDS011;32509;47.750;-3.396;2023-01-15T07:09:28;11.50;;;2.25;;
46757;SDS011;32509;47.750;-3.396;2023-01-15T07:11:55;8.45;;;1.90;;
46757;SDS011;32509;47.750;-3.396;2023-01-15T07:14:22;6.65;;;2.10;;
46757;SDS011;32509;47.750;-3.396;2023-01-15T07:16:49;5.68;;;2.00;;
46757;SDS011;32509;47.750;-3.396;2023-01-15T07:19:15;13.82;;;2.75;;
46757;SDS011;32509;47.750;-3.396;2023-01-15T07:21:42;6.30;;;1.85;;
46757;SDS011;32509;47.750;-3.396;2023-01-15T07:24:09;5.63;;;2.25;;
46757;SDS011;32509;47.750;-3.396;2023-01-15T07:26:35;5.93;;;1.50;;
46757;SDS011;32509;47.750;-3.396;2023-01-15T07:29:02;7.38;;;1.67;;
46757;SDS011;32509;47.750;-3.396;2023-01-15T07:31:28;5.50;;;1.55;;
46757;SDS011;32509;47.750;-3.396;2023-01-15T07:33:55;9.38;;;1.85;;
46757;SDS011;32509;47.750;-3.396;2023-01-15T07:36:21;5.20;;;1.73;;
46757;SDS011;32509;47.750;-3.396;2023-01-15T07:38:47;11.63;;;2.45;;
46757;SDS011;32509;47.750;-3.396;2023-01-15T07:41:14;7.10;;;2.00;;
46757;SDS011;32509;47.750;-3.396;2023-01-15T07:43:58;12.90;;;2.60;;
46757;SDS011;32509;47.750;-3.396;2023-01-15T07:46:43;11.98;;;2.53;;
46757;SDS011;32509;47.750;-3.396;2023-01-15T07:49:28;8.45;;;2.28;;
46757;SDS011;32509;47.750;-3.396;2023-01-15T07:54:38;8.45;;;2.60;;
46757;SDS011;32509;47.750;-3.396;2023-01-15T07:57:04;7.63;;;2.22;;
46757;SDS011;32509;47.750;-3.396;2023-01-15T07:59:31;12.13;;;2.50;;
46757;SDS011;32509;47.750;-3.396;2023-01-15T08:01:57;11.90;;;3.10;;
46757;SDS011;32509;47.750;-3.396;2023-01-15T08:04:23;6.78;;;2.30;;
46757;SDS011;32509;47.750;-3.396;2023-01-15T08:06:49;12.60;;;2.80;;
46757;SDS011;32509;47.750;-3.396;2023-01-15T08:09:15;11.52;;;3.33;;
46757;SDS011;32509;47.750;-3.396;2023-01-15T08:11:41;8.30;;;2.13;;
46757;SDS011;32509;47.750;-3.396;2023-01-15T08:14:26;15.05;;;3.67;;
46757;SDS011;32509;47.750;-3.396;2023-01-15T08:17:11;8.30;;;2.42;;
46757;SDS011;32509;47.750;-3.396;2023-01-15T08:19:37;10.32;;;3.28;;
46757;SDS011;32509;47.750;-3.396;2023-01-15T08:22:03;16.33;;;2.75;;
46757;SDS011;32509;47.750;-3.396;2023-01-15T08:24:29;7.40;;;2.13;;
46757;SDS011;32509;47.750;-3.396;2023-01-15T08:26:55;6.75;;;1.90;;
46757;SDS011;32509;47.750;-3.396;2023-01-15T08:29:21;7.38;;;1.80;;
46757;SDS011;32509;47.750;-3.396;2023-01-15T08:31:47;7.18;;;1.80;;
46757;SDS011;32509;47.750;-3.396;2023-01-15T08:34:13;9.30;;;1.75;;
46757;SDS011;32509;47.750;-3.396;2023-01-15T08:36:39;10.15;;;2.10;;
46757;SDS011;32509;47.750;-3.396;2023-01-15T08:39:05;8.30;;;2.20;;
46757;SDS011;32509;47.750;-3.396;2023-01-15T08:41:31;4.93;;;1.55;;
46757;SDS011;32509;47.750;-3.396;2023-01-15T08:43:58;7.88;;;2.63;;
46757;SDS011;32509;47.750;-3.396;2023-01-15T08:46:24;9.32;;;2.33;;
46757;SDS011;32509;47.750;-3.396;2023-01-15T08:48:50;11.40;;;3.65;;
46757;SDS011;32509;47.750;-3.396;2023-01-15T08:51:17;6.68;;;3.60;;
46757;SDS011;32509;47.750;-3.396;2023-01-15T08:53:44;10.57;;;3.53;;
46757;SDS011;32509;47.750;-3.396;2023-01-15T08:56:14;13.90;;;3.65;;
46757;SDS011;32509;47.750;-3.396;2023-01-15T08:58:40;10.88;;;2.58;;
46757;SDS011;32509;47.750;-3.396;2023-01-15T09:01:08;7.68;;;3.28;;
46757;SDS011;32509;47.750;-3.396;2023-01-15T09:03:34;11.43;;;3.40;;
46757;SDS011;32509;47.750;-3.396;2023-01-15T09:06:01;13.50;;;3.53;;
46757;SDS011;32509;47.750;-3.396;2023-01-15T09:08:27;7.93;;;4.00;;
46757;SDS011;32509;47.750;-3.396;2023-01-15T09:11:00;7.13;;;3.22;;
46757;SDS011;32509;47.750;-3.396;2023-01-15T09:13:27;5.30;;;2.35;;
46757;SDS011;32509;47.750;-3.396;2023-01-15T09:15:53;7.47;;;4.20;;
46757;SDS011;32509;47.750;-3.396;2023-01-15T09:18:23;11.90;;;4.53;;
46757;SDS011;32509;47.750;-3.396;2023-01-15T09:20:49;8.00;;;3.60;;
46757;SDS011;32509;47.750;-3.396;2023-01-15T09:23:15;10.55;;;3.60;;
46757;SDS011;32509;47.750;-3.396;2023-01-15T09:25:54;12.52;;;3.53;;
46757;SDS011;32509;47.750;-3.396;2023-01-15T09:28:21;9.00;;;2.80;;
46757;SDS011;32509;47.750;-3.396;2023-01-15T09:30:47;4.90;;;2.35;;
46757;SDS011;32509;47.750;-3.396;2023-01-15T09:33:13;8.45;;;2.20;;
46757;SDS011;32509;47.750;-3.396;2023-01-15T09:35:39;9.27;;;2.20;;
46757;SDS011;32509;47.750;-3.396;2023-01-15T09:38:05;5.72;;;1.83;;
46757;SDS011;32509;47.750;-3.396;2023-01-15T09:43:03;10.75;;;3.20;;
46757;SDS011;32509;47.750;-3.396;2023-01-15T09:45:43;7.68;;;2.25;;
46757;SDS011;32509;47.750;-3.396;2023-01-15T09:53:21;12.60;;;2.85;;
46757;SDS011;32509;47.750;-3.396;2023-01-15T09:55:50;12.30;;;5.22;;
46757;SDS011;32509;47.750;-3.396;2023-01-15T09:58:18;14.82;;;3.10;;
46757;SDS011;32509;47.750;-3.396;2023-01-15T10:00:46;11.55;;;2.42;;
46757;SDS011;32509;47.750;-3.396;2023-01-15T10:03:32;8.43;;;2.20;;
46757;SDS011;32509;47.750;-3.396;2023-01-15T10:06:15;10.80;;;2.25;;
46757;SDS011;32509;47.750;-3.396;2023-01-15T10:08:43;11.52;;;3.00;;
46757;SDS011;32509;47.750;-3.396;2023-01-15T10:13:49;8.15;;;2.30;;
46757;SDS011;32509;47.750;-3.396;2023-01-15T10:16:19;7.57;;;2.92;;
46757;SDS011;32509;47.750;-3.396;2023-01-15T10:18:46;9.40;;;2.38;;
46757;SDS011;32509;47.750;-3.396;2023-01-15T10:26:41;12.20;;;2.92;;
46757;SDS011;32509;47.750;-3.396;2023-01-15T10:29:23;10.73;;;2.33;;
46757;SDS011;32509;47.750;-3.396;2023-01-15T10:31:52;9.13;;;2.77;;
46757;SDS011;32509;47.750;-3.396;2023-01-15T10:36:55;8.07;;;2.45;;
46757;SDS011;32509;47.750;-3.396;2023-01-15T10:39:26;8.95;;;2.75;;
46757;SDS011;32509;47.750;-3.396;2023-01-15T10:44:40;10.88;;;2.88;;
46757;SDS011;32509;47.750;-3.396;2023-01-15T10:47:10;9.13;;;2.35;;
46757;SDS011;32509;47.750;-3.396;2023-01-15T10:49:37;7.72;;;2.45;;
46757;SDS011;32509;47.750;-3.396;2023-01-15T10:52:07;9.90;;;1.90;;
46757;SDS011;32509;47.750;-3.396;2023-01-15T10:54:37;10.93;;;2.13;;
46757;SDS011;32509;47.750;-3.396;2023-01-15T10:59:38;9.50;;;2.05;;
46757;SDS011;32509;47.750;-3.396;2023-01-15T11:02:15;5.72;;;1.92;;
46757;SDS011;32509;47.750;-3.396;2023-01-15T11:04:44;5.50;;;1.90;;
46757;SDS011;32509;47.750;-3.396;2023-01-15T11:07:10;6.13;;;1.63;;
46757;SDS011;32509;47.750;-3.396;2023-01-15T11:09:38;7.22;;;2.05;;
46757;SDS011;32509;47.750;-3.396;2023-01-15T11:14:44;6.05;;;2.08;;
46757;SDS011;32509;47.750;-3.396;2023-01-15T11:17:36;4.97;;;1.73;;
46757;SDS011;32509;47.750;-3.396;2023-01-15T11:23:04;9.60;;;2.55;;
46757;SDS011;32509;47.750;-3.396;2023-01-15T11:25:31;6.10;;;1.98;;
46757;SDS011;32509;47.750;-3.396;2023-01-15T11:28:04;9.77;;;2.55;;
46757;SDS011;32509;47.750;-3.396;2023-01-15T11:30:33;10.75;;;2.80;;
46757;SDS011;32509;47.750;-3.396;2023-01-15T11:33:01;6.07;;;1.90;;
46757;SDS011;32509;47.750;-3.396;2023-01-15T11:35:28;9.38;;;2.95;;
46757;SDS011;32509;47.750;-3.396;2023-01-15T11:38:12;11.55;;;2.08;;
46757;SDS011;32509;47.750;-3.396;2023-01-15T11:40:38;5.60;;;2.10;;
46757;SDS011;32509;47.750;-3.396;2023-01-15T11:43:17;7.32;;;1.73;;
46757;SDS011;32509;47.750;-3.396;2023-01-15T11:46:03;6.40;;;1.75;;
46757;SDS011;32509;47.750;-3.396;2023-01-15T11:48:48;4.47;;;2.10;;
46757;SDS011;32509;47.750;-3.396;2023-01-15T11:51:38;6.00;;;1.58;;
46757;SDS011;32509;47.750;-3.396;2023-01-15T11:54:07;7.80;;;1.92;;
46757;SDS011;32509;47.750;-3.396;2023-01-15T11:56:34;8.45;;;2.20;;
46757;SDS011;32509;47.750;-3.396;2023-01-15T11:59:02;6.75;;;2.30;;
46757;SDS011;32509;47.750;-3.396;2023-01-15T12:01:30;7.40;;;1.80;;
46757;SDS011;32509;47.750;-3.396;2023-01-15T12:03:57;7.85;;;1.75;;
46757;SDS011;32509;47.750;-3.396;2023-01-15T12:06:25;5.20;;;1.45;;
46757;SDS011;32509;47.750;-3.396;2023-01-15T12:08:52;3.88;;;1.40;;
46757;SDS011;32509;47.750;-3.396;2023-01-15T12:22:11;5.22;;;1.80;;
46757;SDS011;32509;47.750;-3.396;2023-01-15T12:24:54;8.15;;;2.13;;
46757;SDS011;32509;47.750;-3.396;2023-01-15T12:29:57;10.57;;;1.92;;
46757;SDS011;32509;47.750;-3.396;2023-01-15T12:32:28;6.45;;;1.83;;
46757;SDS011;32509;47.750;-3.396;2023-01-15T12:34:57;4.75;;;2.63;;
46757;SDS011;32509;47.750;-3.396;2023-01-15T12:37:28;7.30;;;1.88;;
46757;SDS011;32509;47.750;-3.396;2023-01-15T12:42:26;8.63;;;2.15;;
46757;SDS011;32509;47.750;-3.396;2023-01-15T12:45:15;7.22;;;2.65;;
46757;SDS011;32509;47.750;-3.396;2023-01-15T12:48:00;12.57;;;2.90;;
46757;SDS011;32509;47.750;-3.396;2023-01-15T12:50:38;8.77;;;3.53;;
46757;SDS011;32509;47.750;-3.396;2023-01-15T12:53:11;15.52;;;2.65;;
46757;SDS011;32509;47.750;-3.396;2023-01-15T12:55:46;14.73;;;2.60;;
46757;SDS011;32509;47.750;-3.396;2023-01-15T12:58:20;12.10;;;2.83;;
46757;SDS011;32509;47.750;-3.396;2023-01-15T13:00:48;8.63;;;2.55;;
46757;SDS011;32509;47.750;-3.396;2023-01-15T13:05:50;12.50;;;2.70;;
46757;SDS011;32509;47.750;-3.396;2023-01-15T13:08:19;10.48;;;2.58;;
46757;SDS011;32509;47.750;-3.396;2023-01-15T13:10:48;6.80;;;2.30;;
46757;SDS011;32509;47.750;-3.396;2023-01-15T13:13:19;10.73;;;2.67;;
46757;SDS011;32509;47.750;-3.396;2023-01-15T13:18:19;10.50;;;2.78;;
46757;SDS011;32509;47.750;-3.396;2023-01-15T13:20:49;11.98;;;2.53;;
46757;SDS011;32509;47.750;-3.396;2023-01-15T13:26:12;18.67;;;3.25;;
46757;SDS011;32509;47.750;-3.396;2023-01-15T13:33:44;13.35;;;2.95;;
46757;SDS011;32509;47.750;-3.396;2023-01-15T13:36:45;12.10;;;3.03;;
46757;SDS011;32509;47.750;-3.396;2023-01-15T13:39:04;18.02;;;4.13;;
46757;SDS011;32509;47.750;-3.396;2023-01-15T13:41:32;16.30;;;3.10;;
46757;SDS011;32509;47.750;-3.396;2023-01-15T13:44:22;10.43;;;3.13;;
46757;SDS011;32509;47.750;-3.396;2023-01-15T13:46:58;8.95;;;2.78;;
46757;SDS011;32509;47.750;-3.396;2023-01-15T13:49:27;8.35;;;2.88;;
46757;SDS011;32509;47.750;-3.396;2023-01-15T13:51:55;8.88;;;3.08;;
46757;SDS011;32509;47.750;-3.396;2023-01-15T13:54:28;12.60;;;3.97;;
46757;SDS011;32509;47.750;-3.396;2023-01-15T13:57:05;12.77;;;3.60;;
46757;SDS011;32509;47.750;-3.396;2023-01-15T13:59:42;10.50;;;3.17;;
46757;SDS011;32509;47.750;-3.396;2023-01-15T14:02:24;14.80;;;4.13;;
46757;SDS011;32509;47.750;-3.396;2023-01-15T14:04:54;13.20;;;2.97;;
46757;SDS011;32509;47.750;-3.396;2023-01-15T14:07:29;10.43;;;3.05;;
46757;SDS011;32509;47.750;-3.396;2023-01-15T14:10:06;4.85;;;1.83;;
46757;SDS011;32509;47.750;-3.396;2023-01-15T14:12:42;8.57;;;1.98;;
46757;SDS011;32509;47.750;-3.396;2023-01-15T14:23:17;6.90;;;1.77;;
46757;SDS011;32509;47.750;-3.396;2023-01-15T14:33:33;5.35;;;1.77;;
46757;SDS011;32509;47.750;-3.396;2023-01-15T14:36:10;3.95;;;1.90;;
46757;SDS011;32509;47.750;-3.396;2023-01-15T14:38:44;8.10;;;2.58;;
46757;SDS011;32509;47.750;-3.396;2023-01-15T14:41:11;7.85;;;3.00;;
46757;SDS011;32509;47.750;-3.396;2023-01-15T14:43:37;5.00;;;1.70;;
46757;SDS011;32509;47.750;-3.396;2023-01-15T14:46:14;6.18;;;2.30;;
46757;SDS011;32509;47.750;-3.396;2023-01-15T14:48:44;2.97;;;1.52;;
46757;SDS011;32509;47.750;-3.396;2023-01-15T14:51:29;5.25;;;1.85;;
46757;SDS011;32509;47.750;-3.396;2023-01-15T14:54:01;6.63;;;1.40;;
46757;SDS011;32509;47.750;-3.396;2023-01-15T14:56:30;3.07;;;1.20;;
46757;SDS011;32509;47.750;-3.396;2023-01-15T15:06:46;6.68;;;2.28;;
46757;SDS011;32509;47.750;-3.396;2023-01-15T15:09:12;7.60;;;2.08;;
46757;SDS011;32509;47.750;-3.396;2023-01-15T15:11:48;6.53;;;2.17;;
46757;SDS011;32509;47.750;-3.396;2023-01-15T15:14:34;6.32;;;2.15;;
46757;SDS011;32509;47.750;-3.396;2023-01-15T15:17:01;7.65;;;2.08;;
46757;SDS011;32509;47.750;-3.396;2023-01-15T15:19:37;8.30;;;2.30;;
46757;SDS011;32509;47.750;-3.396;2023-01-15T15:22:05;6.15;;;1.67;;
46757;SDS011;32509;47.750;-3.396;2023-01-15T15:24:33;7.22;;;1.75;;
46757;SDS011;32509;47.750;-3.396;2023-01-15T15:29:41;7.18;;;3.25;;
46757;SDS011;32509;47.750;-3.396;2023-01-15T15:32:08;8.60;;;3.50;;
46757;SDS011;32509;47.750;-3.396;2023-01-15T15:34:36;11.18;;;3.60;;
46757;SDS011;32509;47.750;-3.396;2023-01-15T15:37:05;7.95;;;3.55;;
46757;SDS011;32509;47.750;-3.396;2023-01-15T15:42:16;6.70;;;3.70;;
46757;SDS011;32509;47.750;-3.396;2023-01-15T15:45:05;10.27;;;5.27;;
46757;SDS011;32509;47.750;-3.396;2023-01-15T15:47:54;6.55;;;3.65;;
46757;SDS011;32509;47.750;-3.396;2023-01-15T15:50:39;11.20;;;4.28;;
46757;SDS011;32509;47.750;-3.396;2023-01-15T15:53:14;8.35;;;3.38;;
46757;SDS011;32509;47.750;-3.396;2023-01-15T15:55:41;12.77;;;4.05;;
46757;SDS011;32509;47.750;-3.396;2023-01-15T15:58:11;11.27;;;4.03;;
46757;SDS011;32509;47.750;-3.396;2023-01-15T16:00:40;10.30;;;3.53;;
46757;SDS011;32509;47.750;-3.396;2023-01-15T16:03:14;6.18;;;2.88;;
46757;SDS011;32509;47.750;-3.396;2023-01-15T16:05:42;8.30;;;3.15;;
46757;SDS011;32509;47.750;-3.396;2023-01-15T16:10:39;7.25;;;3.58;;
46757;SDS011;32509;47.750;-3.396;2023-01-15T16:13:06;7.32;;;3.30;;
46757;SDS011;32509;47.750;-3.396;2023-01-15T16:15:37;8.18;;;2.97;;
46757;SDS011;32509;47.750;-3.396;2023-01-15T16:18:04;7.88;;;3.47;;
46757;SDS011;32509;47.750;-3.396;2023-01-15T16:20:31;6.10;;;3.20;;
46757;SDS011;32509;47.750;-3.396;2023-01-15T16:22:59;14.77;;;9.13;;
46757;SDS011;32509;47.750;-3.396;2023-01-15T16:25:26;25.05;;;17.90;;
46757;SDS011;32509;47.750;-3.396;2023-01-15T16:27:54;24.10;;;15.10;;
46757;SDS011;32509;47.750;-3.396;2023-01-15T16:30:21;9.50;;;7.45;;
46757;SDS011;32509;47.750;-3.396;2023-01-15T16:32:47;28.35;;;21.00;;
46757;SDS011;32509;47.750;-3.396;2023-01-15T16:35:16;19.65;;;15.15;;
46757;SDS011;32509;47.750;-3.396;2023-01-15T16:37:45;14.57;;;7.78;;
46757;SDS011;32509;47.750;-3.396;2023-01-15T16:40:18;16.98;;;7.88;;
46757;SDS011;32509;47.750;-3.396;2023-01-15T16:42:46;14.57;;;7.43;;